IGO45E VIDP-LGAV
Flight info
| Callsign | IGO45E |
|---|---|
| Flight time | N/A |
| Altitude | 32000 |
| Route | SURAM7A SURAM G333 MERUN L750 UPVAL/N0471F340 L750 RANAH B449 INRAK A240 KRS B143 TUNEK A909 RODAR/N0464F360 N644 BADIR DCT NOLGA UN61 TBN UW706 SIV UT54 IMR UG802 VEXOL/N0467F320 UY134 SOSIR UN604 OGSIL |
| Aircraft | A21N/M-SDE3FGHIRWY/LB1 |
Departure
| Time | 2026-05-06 05:22 |
|---|---|
| Airport | Indira Gandhi International Airport (VIDP) |
Arrival
| Time | N/A |
|---|---|
| Airport | Athens Eleftherios Venizelos International Airport (LGAV) |
| Time | Latitude | Longitude | Altitude | Speed | Heading |
|---|---|---|---|---|---|
| 2026-05-06 05:01 | 28.56004 | 77.08359 | 780 ft | 0 kts | 240° |
| 2026-05-06 05:08 | 28.56006 | 77.08363 | 780 ft | 1 kts | 218° |
| 2026-05-06 05:08 | 28.56019 | 77.08371 | 780 ft | 2 kts | 212° |
| 2026-05-06 05:09 | 28.56031 | 77.08382 | 780 ft | 2 kts | 218° |
| 2026-05-06 05:09 | 28.56043 | 77.08391 | 780 ft | 2 kts | 214° |
| 2026-05-06 05:09 | 28.56052 | 77.08398 | 780 ft | 0 kts | 234° |
| 2026-05-06 05:09 | 28.56053 | 77.08405 | 780 ft | 1 kts | 293° |
| 2026-05-06 05:10 | 28.56050 | 77.08410 | 780 ft | 0 kts | 334° |
| 2026-05-06 05:10 | 28.56044 | 77.08414 | 780 ft | 0 kts | 329° |
| 2026-05-06 05:16 | 28.56045 | 77.08413 | 780 ft | 0 kts | 329° |
| 2026-05-06 05:16 | 28.56048 | 77.08411 | 780 ft | 1 kts | 329° |
| 2026-05-06 05:16 | 28.56070 | 77.08395 | 780 ft | 7 kts | 328° |
| 2026-05-06 05:16 | 28.56129 | 77.08355 | 780 ft | 12 kts | 329° |
| 2026-05-06 05:17 | 28.56211 | 77.08300 | 780 ft | 11 kts | 330° |
| 2026-05-06 05:17 | 28.56278 | 77.08256 | 780 ft | 11 kts | 329° |
| 2026-05-06 05:17 | 28.56322 | 77.08226 | 780 ft | 5 kts | 304° |
| 2026-05-06 05:17 | 28.56331 | 77.08181 | 780 ft | 7 kts | 277° |
| 2026-05-06 05:18 | 28.56339 | 77.08089 | 780 ft | 15 kts | 281° |
| 2026-05-06 05:18 | 28.56399 | 77.08000 | 780 ft | 14 kts | 356° |
| 2026-05-06 05:18 | 28.56479 | 77.08060 | 780 ft | 14 kts | 60° |
| 2026-05-06 05:18 | 28.56527 | 77.08160 | 780 ft | 14 kts | 62° |
| 2026-05-06 05:19 | 28.56574 | 77.08258 | 780 ft | 14 kts | 62° |
| 2026-05-06 05:19 | 28.56621 | 77.08356 | 780 ft | 14 kts | 61° |
| 2026-05-06 05:19 | 28.56668 | 77.08453 | 780 ft | 14 kts | 61° |
| 2026-05-06 05:19 | 28.56722 | 77.08546 | 780 ft | 13 kts | 37° |
| 2026-05-06 05:20 | 28.56801 | 77.08606 | 780 ft | 13 kts | 37° |
| 2026-05-06 05:20 | 28.56872 | 77.08676 | 780 ft | 13 kts | 41° |
| 2026-05-06 05:20 | 28.56943 | 77.08747 | 780 ft | 13 kts | 41° |
| 2026-05-06 05:20 | 28.57012 | 77.08821 | 780 ft | 13 kts | 46° |
| 2026-05-06 05:21 | 28.57050 | 77.08924 | 780 ft | 18 kts | 85° |
| 2026-05-06 05:21 | 28.57050 | 77.09113 | 780 ft | 32 kts | 91° |
| 2026-05-06 05:21 | 28.57039 | 77.09660 | 780 ft | 103 kts | 90° |
| 2026-05-06 05:21 | 28.57012 | 77.10715 | 780 ft | 162 kts | 92° |
| 2026-05-06 05:22 | 28.56973 | 77.12149 | 935 ft | 195 kts | 92° |
| 2026-05-06 05:22 | 28.56927 | 77.13695 | 1588 ft | 196 kts | 92° |
| 2026-05-06 05:22 | 28.56891 | 77.15214 | 2309 ft | 197 kts | 91° |
| 2026-05-06 05:22 | 28.56852 | 77.16771 | 2874 ft | 200 kts | 90° |
| 2026-05-06 05:23 | 28.56815 | 77.18417 | 3191 ft | 216 kts | 90° |
| 2026-05-06 05:23 | 28.56776 | 77.20175 | 3494 ft | 233 kts | 90° |
| 2026-05-06 05:23 | 28.56688 | 77.24114 | 4182 ft | 267 kts | 90° |